createdAt,value
2017-10-12T00:00:58.083Z,4.57
2017-10-12T00:03:27.095Z,5.00
2017-10-12T00:05:56.130Z,5.90
2017-10-12T00:08:24.423Z,5.27
2017-10-12T00:10:52.695Z,3.87
2017-10-12T00:13:20.934Z,4.53
2017-10-12T00:15:49.966Z,3.60
2017-10-12T00:18:18.218Z,5.13
2017-10-12T00:20:46.463Z,5.03
2017-10-12T00:23:14.819Z,4.40
2017-10-12T00:25:43.089Z,4.77
2017-10-12T00:28:11.330Z,5.10
2017-10-12T00:30:40.355Z,4.60
2017-10-12T00:33:08.624Z,4.23
2017-10-12T00:35:37.645Z,5.70
2017-10-12T00:38:05.895Z,5.70
2017-10-12T00:40:34.928Z,5.77
2017-10-12T00:43:03.219Z,4.93
2017-10-12T00:45:31.502Z,5.20
2017-10-12T00:47:59.750Z,5.40
2017-10-12T00:50:28.024Z,5.20
2017-10-12T00:52:57.041Z,13.73
2017-10-12T00:55:25.295Z,7.27
2017-10-12T00:57:54.340Z,5.97
2017-10-12T01:00:22.588Z,6.30
2017-10-12T01:02:50.924Z,6.70
2017-10-12T01:05:19.220Z,6.60
2017-10-12T01:07:48.995Z,6.73
2017-10-12T01:10:17.285Z,12.87
2017-10-12T01:12:45.564Z,6.90
2017-10-12T01:15:13.810Z,7.57
2017-10-12T01:17:42.845Z,6.93
2017-10-12T01:20:11.088Z,6.13
2017-10-12T01:22:40.123Z,5.80
2017-10-12T01:25:08.372Z,5.60
2017-10-12T01:27:37.407Z,5.60
2017-10-12T01:30:05.655Z,5.90
2017-10-12T01:32:34.677Z,5.60
2017-10-12T01:35:02.968Z,4.90
2017-10-12T01:37:31.235Z,6.03
2017-10-12T01:39:59.483Z,6.00
2017-10-12T01:42:28.506Z,6.33
2017-10-12T01:44:56.841Z,6.30
2017-10-12T01:47:25.089Z,5.57
2017-10-12T01:49:53.365Z,6.07
2017-10-12T01:52:21.626Z,6.87
2017-10-12T01:54:49.862Z,5.57
2017-10-12T01:57:18.136Z,5.30
2017-10-12T01:59:46.384Z,7.53
2017-10-12T02:02:14.622Z,6.13
2017-10-12T02:04:43.653Z,6.17
2017-10-12T02:07:11.954Z,7.50
2017-10-12T02:09:40.229Z,6.47
2017-10-12T02:12:08.468Z,7.33
2017-10-12T02:14:37.502Z,7.20
2017-10-12T02:17:05.744Z,7.47
2017-10-12T02:19:34.767Z,7.20
2017-10-12T02:22:03.027Z,7.67
2017-10-12T02:24:33.208Z,9.30
2017-10-12T02:27:01.456Z,6.93
2017-10-12T02:29:29.711Z,6.70
2017-10-12T02:31:58.755Z,5.97
2017-10-12T02:34:27.014Z,6.17
2017-10-12T02:36:55.258Z,6.23
2017-10-12T02:39:23.517Z,6.20
2017-10-12T02:41:51.772Z,6.37
2017-10-12T02:44:20.051Z,7.40
2017-10-12T02:46:48.339Z,7.40
2017-10-12T02:49:16.607Z,7.07
2017-10-12T02:51:44.903Z,6.10
2017-10-12T02:54:13.164Z,5.70
2017-10-12T02:56:41.407Z,6.73
2017-10-12T02:59:09.670Z,6.87
2017-10-12T03:01:37.924Z,5.80
2017-10-12T03:04:06.210Z,6.03
2017-10-12T03:06:34.493Z,6.07
2017-10-12T03:09:02.741Z,5.83
2017-10-12T03:11:31.009Z,6.13
2017-10-12T03:14:00.025Z,5.73
2017-10-12T03:16:28.283Z,6.20
2017-10-12T03:18:57.324Z,5.60
2017-10-12T03:21:25.599Z,6.00
2017-10-12T03:23:53.854Z,6.30
2017-10-12T03:26:22.880Z,6.30
2017-10-12T03:28:51.886Z,6.63
2017-10-12T03:31:20.147Z,6.70
2017-10-12T03:33:48.392Z,6.30
2017-10-12T03:36:16.664Z,6.50
2017-10-12T03:38:44.930Z,6.00
2017-10-12T03:41:13.187Z,6.20
2017-10-12T03:43:41.440Z,6.80
2017-10-12T03:46:10.464Z,6.90
2017-10-12T03:48:38.708Z,6.20
2017-10-12T03:51:07.728Z,6.47
2017-10-12T03:53:35.969Z,6.20
2017-10-12T03:56:04.226Z,7.03
2017-10-12T03:58:32.478Z,6.43
2017-10-12T04:01:00.752Z,6.40
2017-10-12T04:03:29.054Z,5.70
2017-10-12T04:05:57.298Z,6.43
2017-10-12T04:08:25.563Z,6.80
2017-10-12T04:10:53.913Z,6.07
2017-10-12T04:13:22.181Z,6.57
2017-10-12T04:15:50.425Z,7.20
2017-10-12T04:18:19.450Z,7.83
2017-10-12T04:20:47.735Z,7.00
2017-10-12T04:23:15.991Z,6.53
2017-10-12T04:25:44.240Z,6.17
2017-10-12T04:28:12.520Z,6.40
2017-10-12T04:30:40.755Z,6.40
2017-10-12T04:33:09.014Z,7.27
2017-10-12T04:35:37.272Z,6.20
2017-10-12T04:38:05.523Z,6.60
2017-10-12T04:40:33.776Z,7.10
2017-10-12T04:43:02.046Z,7.60
2017-10-12T04:45:30.296Z,6.97
2017-10-12T04:47:59.333Z,9.70
2017-10-12T04:50:27.620Z,6.57
2017-10-12T04:52:55.898Z,7.03
2017-10-12T04:55:24.198Z,7.23
2017-10-12T04:57:52.462Z,6.30
2017-10-12T05:00:20.722Z,5.93
2017-10-12T05:02:48.967Z,6.70
2017-10-12T05:05:17.996Z,7.20
2017-10-12T05:07:46.251Z,6.67
2017-10-12T05:10:14.508Z,6.27
2017-10-12T05:12:42.760Z,7.50
2017-10-12T05:15:11.025Z,7.30
2017-10-12T05:17:39.273Z,7.17
2017-10-12T05:20:08.298Z,7.07
2017-10-12T05:22:36.544Z,6.67
2017-10-12T05:25:04.809Z,6.87
2017-10-12T05:27:33.055Z,6.17
2017-10-12T05:30:01.310Z,6.67
2017-10-12T05:32:29.709Z,6.97
2017-10-12T05:34:57.962Z,6.73
2017-10-12T05:37:27.005Z,6.93
2017-10-12T05:39:55.270Z,6.70
2017-10-12T05:42:23.516Z,6.33
2017-10-12T05:44:51.783Z,6.60
2017-10-12T05:47:21.546Z,6.20
2017-10-12T05:49:49.809Z,6.90
2017-10-12T05:52:18.821Z,6.50
2017-10-12T05:54:47.082Z,7.40
2017-10-12T05:57:16.101Z,7.37
2017-10-12T05:59:44.388Z,6.77
2017-10-12T06:02:12.646Z,6.27
2017-10-12T06:04:41.667Z,6.83
2017-10-12T06:07:09.968Z,7.50
2017-10-12T06:09:38.221Z,6.70
2017-10-12T06:12:07.244Z,6.43
2017-10-12T06:14:35.489Z,6.90
2017-10-12T06:17:04.509Z,8.00
2017-10-12T06:19:32.758Z,7.53
2017-10-12T06:22:01.842Z,8.03
2017-10-12T06:24:30.062Z,6.57
2017-10-12T06:26:58.319Z,7.53
2017-10-12T06:29:26.569Z,6.53
2017-10-12T06:31:54.833Z,8.67
2017-10-12T06:34:23.075Z,6.90
2017-10-12T06:36:51.330Z,6.37
2017-10-12T06:39:21.098Z,7.87
2017-10-12T06:41:49.355Z,7.53
2017-10-12T06:44:18.391Z,6.17
2017-10-12T06:46:46.655Z,6.00
2017-10-12T06:49:14.914Z,6.97
2017-10-12T06:51:43.943Z,6.57
2017-10-12T06:54:12.183Z,7.20
2017-10-12T06:56:41.234Z,6.20
2017-10-12T06:59:09.530Z,5.80
2017-10-12T07:01:37.894Z,6.87
2017-10-12T07:04:06.163Z,6.53
2017-10-12T07:06:34.467Z,6.33
2017-10-12T07:09:02.720Z,7.00
2017-10-12T07:11:31.026Z,6.40
2017-10-12T07:13:59.257Z,6.97
2017-10-12T07:16:28.298Z,6.00
2017-10-12T07:18:56.550Z,5.47
2017-10-12T07:21:25.679Z,6.67
2017-10-12T07:23:53.972Z,6.20
2017-10-12T07:26:22.279Z,6.27
2017-10-12T07:28:50.571Z,6.50
2017-10-12T07:31:20.351Z,6.37
2017-10-12T07:33:48.611Z,6.70
2017-10-12T07:36:16.856Z,7.00
2017-10-12T07:38:45.112Z,6.17
2017-10-12T07:41:14.863Z,6.43
2017-10-12T07:43:44.352Z,5.30
2017-10-12T07:46:12.795Z,5.37
2017-10-12T07:48:41.078Z,5.23
2017-10-12T07:51:09.415Z,5.87
2017-10-12T07:53:37.733Z,5.73
2017-10-12T07:56:06.024Z,5.90
2017-10-12T07:58:34.288Z,6.10
2017-10-12T08:01:02.528Z,5.73
2017-10-12T08:03:30.851Z,5.37
2017-10-12T08:05:59.086Z,6.17
2017-10-12T08:08:28.132Z,6.00
2017-10-12T08:10:56.410Z,5.97
2017-10-12T08:13:24.675Z,10.70
2017-10-12T08:15:52.951Z,9.20
2017-10-12T08:18:21.971Z,4.93
2017-10-12T08:20:50.219Z,5.27
2017-10-12T08:23:19.266Z,5.20
2017-10-12T08:25:48.330Z,4.77
2017-10-12T08:28:16.779Z,5.00
2017-10-12T08:30:46.548Z,4.77
2017-10-12T08:33:14.839Z,3.40
2017-10-12T08:35:43.122Z,6.97
2017-10-12T08:38:11.377Z,4.93
2017-10-12T08:40:40.402Z,5.43
2017-10-12T08:43:08.693Z,7.33
2017-10-12T08:45:37.007Z,4.93
2017-10-12T08:48:06.106Z,4.90
2017-10-12T08:50:34.694Z,5.67
2017-10-12T08:53:03.007Z,4.70
2017-10-12T08:55:32.220Z,4.77
2017-10-12T08:58:01.233Z,4.83
2017-10-12T09:00:29.648Z,4.17
2017-10-12T09:02:58.008Z,3.60
2017-10-12T09:05:26.291Z,3.20
2017-10-12T09:07:54.531Z,3.00
2017-10-12T09:10:23.558Z,3.03
2017-10-12T09:12:51.846Z,2.10
2017-10-12T09:15:20.138Z,2.00
2017-10-12T09:17:48.378Z,2.13
2017-10-12T09:20:17.409Z,2.37
2017-10-12T09:22:45.695Z,2.60
2017-10-12T09:25:14.179Z,2.90
2017-10-12T09:27:42.471Z,2.57
2017-10-12T09:30:11.111Z,2.20
2017-10-12T09:32:40.155Z,2.30
2017-10-12T09:35:08.432Z,2.70
2017-10-12T09:37:37.059Z,2.33
2017-10-12T09:40:05.314Z,1.83
2017-10-12T09:42:33.575Z,1.60
2017-10-12T09:45:01.800Z,1.40
2017-10-12T09:47:30.153Z,1.90
2017-10-12T09:49:58.465Z,1.30
2017-10-12T09:52:26.808Z,1.57
2017-10-12T09:54:55.090Z,2.10
2017-10-12T09:57:23.347Z,1.50
2017-10-12T09:59:51.649Z,1.37
2017-10-12T10:02:19.936Z,1.93
2017-10-12T10:04:48.212Z,1.50
2017-10-12T10:07:16.498Z,1.57
2017-10-12T10:09:44.734Z,2.40
2017-10-12T10:12:13.760Z,2.10
2017-10-12T10:14:42.002Z,2.40
2017-10-12T10:17:10.264Z,2.73
2017-10-12T10:19:38.514Z,1.70
2017-10-12T10:22:06.795Z,1.80
2017-10-12T10:24:35.037Z,1.50
2017-10-12T10:27:04.176Z,1.93
2017-10-12T10:29:32.476Z,1.83
2017-10-12T10:32:00.882Z,1.73
2017-10-12T10:34:29.094Z,3.73
2017-10-12T10:36:58.229Z,2.67
2017-10-12T10:39:26.516Z,1.63
2017-10-12T10:41:54.789Z,1.60
2017-10-12T10:44:23.075Z,1.50
2017-10-12T10:46:51.341Z,1.63
2017-10-12T10:49:19.648Z,1.90
2017-10-12T10:51:47.887Z,1.73
2017-10-12T10:54:16.143Z,1.53
2017-10-12T10:56:44.387Z,1.90
2017-10-12T10:59:12.650Z,1.80
2017-10-12T11:01:40.935Z,1.97
2017-10-12T11:04:09.218Z,2.00
2017-10-12T11:06:37.459Z,1.80
2017-10-12T11:09:06.500Z,1.50
2017-10-12T11:11:35.064Z,2.07
2017-10-12T11:14:04.188Z,2.30
2017-10-12T11:16:32.439Z,2.57
2017-10-12T11:19:01.462Z,2.50
2017-10-12T11:21:29.745Z,1.77
2017-10-12T11:23:58.033Z,2.07
2017-10-12T11:26:26.307Z,1.80
2017-10-12T11:28:54.576Z,2.10
2017-10-12T11:31:22.820Z,1.83
2017-10-12T11:33:51.083Z,1.60
2017-10-12T11:36:19.428Z,1.53
2017-10-12T11:38:47.687Z,1.47
2017-10-12T11:41:15.999Z,1.77
2017-10-12T11:43:44.249Z,1.30
2017-10-12T11:46:12.492Z,1.83
2017-10-12T11:48:40.751Z,2.33
2017-10-12T11:51:09.015Z,2.60
2017-10-12T11:53:37.277Z,1.50
2017-10-12T11:56:05.520Z,1.60
2017-10-12T11:58:33.768Z,1.50
2017-10-12T12:01:02.024Z,2.50
2017-10-12T12:03:30.320Z,2.10
2017-10-12T12:05:58.571Z,2.00
2017-10-12T12:08:27.583Z,2.63
2017-10-12T12:10:57.515Z,3.30
2017-10-12T12:13:25.802Z,2.40
2017-10-12T12:15:54.086Z,2.83
2017-10-12T12:18:22.354Z,3.50
2017-10-12T12:20:50.610Z,2.43
2017-10-12T12:23:19.635Z,2.10
2017-10-12T12:25:49.215Z,2.00
2017-10-12T12:28:18.250Z,1.87
2017-10-12T12:30:46.512Z,3.03
2017-10-12T12:33:14.745Z,2.57
2017-10-12T12:35:43.115Z,2.47
2017-10-12T12:38:11.353Z,2.00
2017-10-12T12:40:39.654Z,2.17
2017-10-12T12:43:07.922Z,1.73
2017-10-12T12:45:36.176Z,2.20
2017-10-12T12:48:05.178Z,1.80
2017-10-12T12:50:34.204Z,1.80
2017-10-12T12:53:02.447Z,1.50
2017-10-12T12:55:31.683Z,2.03
2017-10-12T12:57:59.959Z,3.60
2017-10-12T13:00:28.227Z,2.47
2017-10-12T13:02:57.243Z,2.20
2017-10-12T13:05:25.524Z,2.17
2017-10-12T13:07:53.815Z,3.50
2017-10-12T13:10:22.957Z,3.17
2017-10-12T13:12:51.200Z,1.90
2017-10-12T13:15:19.486Z,2.00
2017-10-12T13:17:47.759Z,2.10
2017-10-12T13:20:16.044Z,2.27
2017-10-12T13:22:44.307Z,2.20
2017-10-12T13:25:12.545Z,1.83
2017-10-12T13:27:40.882Z,2.67
2017-10-12T13:30:09.154Z,2.30
2017-10-12T13:32:37.410Z,2.33
2017-10-12T13:35:05.718Z,2.97
2017-10-12T13:37:33.980Z,2.80
2017-10-12T13:40:02.279Z,2.57
2017-10-12T13:42:30.534Z,2.50
2017-10-12T13:44:59.562Z,2.17
2017-10-12T13:47:27.858Z,2.17
2017-10-12T13:49:56.104Z,3.07
2017-10-12T13:52:24.467Z,2.40
2017-10-12T13:54:53.836Z,1.90
2017-10-12T13:57:22.097Z,2.30
2017-10-12T13:59:50.357Z,2.07
2017-10-12T14:02:19.378Z,2.10
2017-10-12T14:04:47.655Z,2.20
2017-10-12T14:07:15.928Z,2.13
2017-10-12T14:09:44.163Z,2.30
2017-10-12T14:12:12.426Z,2.23
2017-10-12T14:14:40.671Z,2.20
2017-10-12T14:17:08.946Z,2.73
2017-10-12T14:19:37.187Z,2.00
2017-10-12T14:22:05.522Z,3.57
2017-10-12T14:24:33.873Z,2.30
2017-10-12T14:27:02.920Z,1.93
2017-10-12T14:29:31.166Z,2.33
2017-10-12T14:31:59.467Z,2.93
2017-10-12T14:34:27.756Z,2.60
2017-10-12T14:36:56.002Z,2.10
2017-10-12T14:39:25.132Z,2.90
2017-10-12T14:41:53.379Z,2.10
2017-10-12T14:44:22.420Z,2.60
2017-10-12T14:46:50.661Z,2.23
2017-10-12T14:49:19.691Z,2.33
2017-10-12T14:51:47.927Z,1.90
2017-10-12T14:54:16.963Z,2.47
2017-10-12T14:56:45.248Z,1.90
2017-10-12T14:59:13.526Z,2.03
2017-10-12T15:01:42.423Z,1.93
2017-10-12T15:04:10.684Z,2.20
2017-10-12T15:06:39.683Z,1.90
2017-10-12T15:09:07.941Z,1.60
2017-10-12T15:11:36.270Z,2.30
2017-10-12T15:14:04.554Z,2.33
2017-10-12T15:16:32.831Z,2.27
2017-10-12T15:19:01.098Z,2.10
2017-10-12T15:21:29.428Z,2.03
2017-10-12T15:23:57.758Z,2.13
2017-10-12T15:26:26.010Z,2.00
2017-10-12T15:28:55.782Z,1.87
2017-10-12T15:31:24.019Z,2.10
2017-10-12T15:33:53.050Z,1.60
2017-10-12T15:36:21.299Z,1.87
2017-10-12T15:38:50.318Z,2.87
2017-10-12T15:41:19.337Z,2.77
2017-10-12T15:43:47.575Z,2.63
2017-10-12T15:46:16.608Z,2.60
2017-10-12T15:48:44.844Z,2.70
2017-10-12T15:51:13.101Z,2.83
2017-10-12T15:53:41.350Z,2.47
2017-10-12T15:56:09.604Z,2.40
2017-10-12T15:58:39.227Z,3.20
2017-10-12T16:01:07.493Z,3.57
2017-10-12T16:03:36.498Z,2.50
2017-10-12T16:06:05.526Z,2.13
2017-10-12T16:08:33.771Z,2.80
2017-10-12T16:11:02.796Z,2.63
2017-10-12T16:13:31.030Z,3.07
2017-10-12T16:15:59.359Z,2.70
2017-10-12T16:18:27.647Z,2.23
2017-10-12T16:20:55.905Z,1.90
2017-10-12T16:23:25.021Z,2.90
2017-10-12T16:25:53.276Z,2.30
2017-10-12T16:28:22.312Z,2.20
2017-10-12T16:30:50.600Z,2.80
2017-10-12T16:33:18.844Z,2.00
2017-10-12T16:35:47.971Z,2.57
2017-10-12T16:38:16.264Z,2.60
2017-10-12T16:40:44.509Z,2.70
2017-10-12T16:43:13.522Z,2.60
2017-10-12T16:45:41.785Z,3.30
2017-10-12T16:48:10.817Z,2.20
2017-10-12T16:50:54.170Z,2.67
2017-10-12T16:53:07.447Z,2.53
2017-10-12T16:55:36.493Z,2.10
2017-10-12T16:58:04.742Z,3.43
2017-10-12T17:00:33.009Z,4.27
2017-10-12T17:03:02.042Z,4.00
2017-10-12T17:05:30.298Z,3.13
2017-10-12T17:07:58.866Z,3.07
2017-10-12T17:10:28.217Z,3.10
2017-10-12T17:12:56.465Z,3.00
2017-10-12T17:15:25.496Z,2.90
2017-10-12T17:17:53.752Z,3.20
2017-10-12T17:20:22.664Z,2.90
2017-10-12T17:22:50.922Z,2.77
2017-10-12T17:25:22.509Z,2.40
2017-10-12T17:27:50.798Z,3.00
2017-10-12T17:30:19.032Z,2.03
2017-10-12T17:32:48.060Z,2.23
2017-10-12T17:35:16.359Z,2.73
2017-10-12T17:37:44.616Z,2.47
2017-10-12T17:40:12.928Z,2.33
2017-10-12T17:42:41.194Z,2.57
2017-10-12T17:45:09.482Z,3.10
2017-10-12T17:47:37.731Z,3.17
2017-10-12T17:50:05.981Z,3.57
2017-10-12T17:52:35.043Z,2.60
2017-10-12T17:55:03.278Z,4.43
2017-10-12T17:57:32.310Z,5.37
2017-10-12T18:00:00.567Z,3.60
2017-10-12T18:02:29.574Z,3.33
2017-10-12T18:04:58.555Z,3.10
2017-10-12T18:07:27.559Z,3.50
2017-10-12T18:09:56.691Z,2.90
2017-10-12T18:12:24.959Z,3.10
2017-10-12T18:14:53.213Z,3.00
2017-10-12T18:17:22.231Z,4.37
2017-10-12T18:19:51.357Z,3.40
2017-10-12T18:22:19.631Z,5.00
2017-10-12T18:24:47.910Z,3.50
2017-10-12T18:27:16.195Z,3.67
2017-10-12T18:29:44.476Z,3.33
2017-10-12T18:32:12.722Z,3.63
2017-10-12T18:37:10.035Z,3.30
2017-10-12T18:39:38.319Z,3.30
2017-10-12T18:42:06.555Z,3.20
2017-10-12T18:44:35.610Z,3.30
2017-10-12T18:47:03.869Z,4.17
2017-10-12T18:49:32.130Z,3.50
2017-10-12T18:52:01.155Z,4.07
2017-10-12T18:54:29.415Z,3.70
2017-10-12T18:56:58.711Z,4.40
2017-10-12T18:59:26.966Z,2.70
2017-10-12T19:01:55.216Z,2.73
2017-10-12T19:04:23.516Z,3.20
2017-10-12T19:06:51.760Z,2.83
2017-10-12T19:09:20.782Z,3.30
2017-10-12T19:11:49.027Z,3.10
2017-10-12T19:14:17.281Z,3.30
2017-10-12T19:16:46.301Z,3.00
2017-10-12T19:19:14.548Z,3.63
2017-10-12T19:21:42.805Z,3.27
2017-10-12T19:24:11.043Z,3.20
2017-10-12T19:26:39.302Z,3.60
2017-10-12T19:29:08.302Z,3.50
2017-10-12T19:31:37.530Z,3.80
2017-10-12T19:34:05.770Z,4.67
2017-10-12T19:36:34.818Z,5.00
2017-10-12T19:39:03.061Z,4.50
2017-10-12T19:41:32.083Z,3.80
2017-10-12T19:44:00.325Z,4.60
2017-10-12T19:46:28.578Z,5.43
2017-10-12T19:48:56.831Z,8.23
2017-10-12T19:53:53.414Z,5.10
2017-10-12T19:56:21.682Z,4.27
2017-10-12T19:59:05.765Z,4.97
2017-10-12T20:01:19.051Z,4.17
2017-10-12T20:03:47.292Z,4.87
2017-10-12T20:06:15.567Z,3.33
2017-10-12T20:08:43.809Z,3.43
2017-10-12T20:11:12.067Z,4.23
2017-10-12T20:13:41.076Z,3.40
2017-10-12T20:16:09.330Z,3.83
2017-10-12T20:18:38.362Z,4.90
2017-10-12T20:21:06.621Z,5.20
2017-10-12T20:23:35.635Z,5.97
2017-10-12T20:26:03.914Z,5.63
2017-10-12T20:28:32.221Z,6.20
2017-10-12T20:31:00.488Z,4.20
2017-10-12T20:33:28.868Z,6.70
2017-10-12T20:35:57.111Z,5.20
2017-10-12T20:38:26.133Z,4.73
2017-10-12T20:40:54.438Z,5.30
2017-10-12T20:43:22.716Z,4.33
2017-10-12T20:45:50.952Z,5.40
2017-10-12T20:48:19.984Z,4.53
2017-10-12T20:50:48.277Z,4.13
2017-10-12T20:53:16.539Z,4.80
2017-10-12T20:55:45.559Z,6.30
2017-10-12T20:58:14.562Z,4.43
2017-10-12T21:00:42.798Z,4.93
2017-10-12T21:03:11.828Z,5.63
2017-10-12T21:05:40.075Z,5.30
2017-10-12T21:08:09.370Z,4.67
2017-10-12T21:10:37.698Z,5.07
2017-10-12T21:13:05.959Z,4.20
2017-10-12T21:15:34.208Z,4.30
2017-10-12T21:18:02.479Z,3.80
2017-10-12T21:20:31.002Z,4.87
2017-10-12T21:22:59.316Z,5.97
2017-10-12T21:25:27.564Z,5.63
2017-10-12T21:27:56.587Z,5.97
2017-10-12T21:30:24.914Z,5.33
2017-10-12T21:32:53.170Z,4.40
2017-10-12T21:35:21.431Z,5.43
2017-10-12T21:37:49.703Z,5.03
2017-10-12T21:40:17.951Z,6.10
2017-10-12T21:42:46.999Z,10.40
2017-10-12T21:45:15.270Z,13.80
2017-10-12T21:47:43.546Z,6.30
2017-10-12T21:50:11.814Z,10.73
2017-10-12T21:52:40.111Z,7.87
2017-10-12T21:55:08.372Z,7.57
2017-10-12T21:57:36.615Z,6.70
2017-10-12T22:00:05.589Z,9.17
2017-10-12T22:02:33.838Z,6.20
2017-10-12T22:05:02.103Z,10.23
2017-10-12T22:07:30.988Z,5.17
2017-10-12T22:10:00.025Z,5.10
2017-10-12T22:12:28.336Z,4.70
2017-10-12T22:14:56.678Z,6.43
2017-10-12T22:17:24.932Z,9.10
2017-10-12T22:19:53.984Z,16.60
2017-10-12T22:22:22.231Z,7.40
2017-10-12T22:24:50.485Z,7.80
2017-10-12T22:27:19.531Z,7.13
2017-10-12T22:29:47.796Z,7.50
2017-10-12T22:32:16.090Z,8.90
2017-10-12T22:34:44.351Z,5.60
2017-10-12T22:37:12.596Z,7.70
2017-10-12T22:39:40.852Z,6.43
2017-10-12T22:42:09.854Z,5.83
2017-10-12T22:44:38.123Z,6.30
2017-10-12T22:47:06.380Z,9.17
2017-10-12T22:49:34.654Z,14.17
2017-10-12T22:52:02.916Z,11.37
2017-10-12T22:54:31.934Z,7.40
2017-10-12T22:57:00.203Z,8.83
2017-10-12T22:59:29.227Z,6.77
2017-10-12T23:01:57.486Z,6.67
2017-10-12T23:04:25.728Z,6.13
2017-10-12T23:06:53.988Z,6.50
2017-10-12T23:09:22.236Z,7.80
2017-10-12T23:11:50.496Z,5.90
2017-10-12T23:14:19.503Z,6.17
2017-10-12T23:16:48.535Z,6.87
2017-10-12T23:19:16.787Z,10.33
2017-10-12T23:21:45.103Z,10.70
2017-10-12T23:24:13.352Z,8.50
2017-10-12T23:26:41.616Z,9.00
2017-10-12T23:29:10.622Z,9.53
2017-10-12T23:31:38.935Z,7.90
2017-10-12T23:34:07.180Z,8.57
2017-10-12T23:36:36.220Z,8.33
2017-10-12T23:39:04.464Z,6.80
2017-10-12T23:41:33.485Z,7.40
2017-10-12T23:44:01.730Z,7.70
2017-10-12T23:46:30.752Z,7.43
2017-10-12T23:48:59.002Z,6.47
2017-10-12T23:51:28.028Z,10.37
2017-10-12T23:53:56.274Z,8.67
2017-10-12T23:56:24.818Z,7.77
2017-10-12T23:58:53.061Z,9.30
